createdAt,value
2023-01-19T00:02:39.914Z,21.22742474916388
2023-01-19T00:14:24.430Z,21.548494983277592
2023-01-19T00:22:06.481Z,22.17725752508361
2023-01-19T00:30:13.777Z,21.561872909698998
2023-01-19T00:37:51.117Z,21.20066889632107
2023-01-19T01:06:55.240Z,22.06354515050167
2023-01-19T01:13:52.072Z,22.17391304347826
2023-01-19T01:33:40.593Z,23.4247491638796
2023-01-19T01:46:31.266Z,24.180602006688964
2023-01-19T01:53:35.048Z,23.642140468227424
2023-01-19T02:00:38.830Z,24.645484949832777
2023-01-19T02:07:39.292Z,24.62541806020067
2023-01-19T02:14:42.241Z,23.86622073578595
2023-01-19T02:22:10.442Z,24.431438127090303
2023-01-19T02:36:40.290Z,24.588628762541806
2023-01-19T02:56:27.183Z,24.240802675585286
2023-01-19T03:04:32.597Z,24.08361204013378
2023-01-19T03:19:32.156Z,24.501672240802677
2023-01-19T03:28:31.872Z,24.39464882943144
2023-01-19T03:41:05.073Z,24.71571906354515
2023-01-19T03:49:31.672Z,24.60535117056856
2023-01-19T04:03:22.248Z,22.414715719063544
2023-01-19T04:11:35.420Z,23.00334448160535
2023-01-19T04:23:58.666Z,22.240802675585286
2023-01-19T04:32:01.257Z,22.123745819397993
2023-01-19T04:47:17.456Z,21.816053511705686
2023-01-19T04:56:12.833Z,22.558528428093645
2023-01-19T05:03:48.439Z,22.923076923076923
2023-01-19T05:24:20.213Z,23.224080267558527
2023-01-19T05:31:22.247Z,23.77257525083612
2023-01-19T05:39:00.200Z,23.337792642140467
2023-01-19T05:46:22.739Z,24.618729096989966
2023-01-19T05:55:30.724Z,24.82943143812709
2023-01-19T06:04:58.422Z,24.551839464882942
2023-01-19T06:11:51.145Z,23.79933110367893
2023-01-19T06:18:33.109Z,23.94983277591973
2023-01-19T06:25:15.519Z,23.39799331103679
2023-01-19T06:36:42.544Z,22.795986622073578
2023-01-19T06:43:21.233Z,22.137123745819398
2023-01-19T06:50:00.836Z,22.47826086956522
2023-01-19T06:56:56.492Z,22.11371237458194
2023-01-19T07:03:50.975Z,21.47826086956522
2023-01-19T07:28:50.857Z,22.16722408026756
2023-01-19T07:49:19.622Z,21.220735785953178
2023-01-19T07:59:03.616Z,21.665551839464882
2023-01-19T08:07:14.115Z,21.11371237458194
2023-01-19T08:14:54.727Z,21.448160535117058
2023-01-19T08:27:15.375Z,21.28428093645485
2023-01-19T08:34:20.808Z,20.859531772575252
2023-01-19T08:48:57.917Z,21.294314381270905
2023-01-19T08:55:35.429Z,20.94314381270903
2023-01-19T09:02:26.768Z,20.71571906354515
2023-01-19T09:09:22.945Z,20.321070234113712
2023-01-19T09:16:02.772Z,20.19732441471572
2023-01-19T09:22:43.354Z,19.464882943143813
2023-01-19T09:34:55.304Z,19.618729096989966
2023-01-19T09:44:06.770Z,17.782608695652176
2023-01-19T09:55:18.091Z,16.906354515050168
2023-01-19T10:01:59.719Z,16.565217391304348
2023-01-19T10:12:54.253Z,16.82274247491639
2023-01-19T10:19:32.752Z,17.207357859531772
2023-01-19T10:30:25.072Z,16.735785953177256
2023-01-19T10:36:59.276Z,16.578595317725753
2023-01-19T10:50:05.312Z,18.120401337792643
2023-01-19T11:02:27.998Z,19.692307692307693
2023-01-19T11:09:42.070Z,18.83277591973244
2023-01-19T11:26:07.908Z,15.551839464882944
2023-01-19T11:33:18.666Z,15.244147157190636
2023-01-19T11:39:55.851Z,12.234113712374581
2023-01-19T11:51:39.447Z,8.608695652173912
2023-01-19T12:00:57.801Z,6.959866220735786
2023-01-19T12:12:29.855Z,4.521739130434782
2023-01-19T12:19:13.451Z,2.9531772575250836
2023-01-19T12:25:49.860Z,1.9163879598662208
2023-01-19T12:37:20.675Z,0.8494983277591973
2023-01-19T12:44:26.276Z,1.2240802675585285
2023-01-19T12:51:19.475Z,1.6321070234113713
2023-01-19T12:58:10.497Z,0.4682274247491639
2023-01-19T13:04:57.979Z,0.49498327759197325
2023-01-19T13:11:38.009Z,0.3076923076923077
2023-01-19T13:25:04.163Z,0.25752508361204013
2023-01-19T13:32:47.819Z,0.14381270903010032
2023-01-19T13:44:00.010Z,0.0903010033444816
2023-01-19T13:56:17.231Z,0.13043478260869565
2023-01-19T14:02:54.358Z,0.07023411371237458
2023-01-19T14:12:04.869Z,0.030100334448160536
2023-01-19T14:18:39.002Z,0.04013377926421405
2023-01-19T14:31:14.533Z,0.08361204013377926
2023-01-19T14:37:52.570Z,0.056856187290969896
2023-01-19T14:56:13.380Z,0.19063545150501673
2023-01-19T15:02:45.430Z,0.25418060200668896
2023-01-19T15:09:17.069Z,0.29431438127090304
2023-01-19T15:38:56.126Z,0.06688963210702341
2023-01-19T15:45:22.334Z,0.4682274247491639
2023-01-19T15:51:50.251Z,0.0
2023-01-19T15:58:17.309Z,0.010033444816053512
2023-01-19T16:06:52.091Z,0.013377926421404682
2023-01-19T16:18:21.713Z,0.2842809364548495
2023-01-19T16:27:15.952Z,0.4983277591973244
2023-01-19T16:33:44.860Z,0.5150501672240803
2023-01-19T16:41:19.652Z,0.6287625418060201
2023-01-19T16:47:52.218Z,1.0568561872909699
2023-01-19T16:59:36.157Z,0.939799331103679
2023-01-19T17:06:06.384Z,1.4180602006688963
2023-01-19T17:12:34.350Z,2.4749163879598663
2023-01-19T17:22:07.894Z,3.822742474916388
2023-01-19T17:28:38.679Z,3.809364548494983
2023-01-19T17:35:12.191Z,3.3946488294314383
2023-01-19T17:41:45.733Z,5.518394648829432
2023-01-19T17:48:19.265Z,4.812709030100335
2023-01-19T17:54:55.431Z,5.377926421404682
2023-01-19T18:04:33.914Z,19.357859531772576
2023-01-19T18:15:17.003Z,6.280936454849498
2023-01-19T18:21:46.270Z,4.20066889632107
2023-01-19T18:28:13.723Z,4.086956521739131
2023-01-19T18:34:45.981Z,3.688963210702341
2023-01-19T18:41:19.169Z,3.5250836120401337
2023-01-19T18:50:59.116Z,3.9297658862876252
2023-01-19T18:57:40.737Z,4.217391304347826
2023-01-19T19:04:38.427Z,4.377926421404682
2023-01-19T19:11:36.491Z,4.789297658862877
2023-01-19T19:18:23.062Z,3.839464882943144
2023-01-19T19:25:02.143Z,3.311036789297659
2023-01-19T19:35:11.839Z,2.82943143812709
2023-01-19T19:42:00.378Z,3.5183946488294313
2023-01-19T19:48:44.871Z,4.421404682274248
2023-01-19T19:56:22.328Z,4.34113712374582
2023-01-19T20:05:03.974Z,4.8361204013377925
2023-01-19T20:20:03.671Z,3.9966555183946486
2023-01-19T20:26:53.062Z,5.501672240802676
2023-01-19T20:37:01.375Z,6.555183946488294
2023-01-19T20:53:42.163Z,6.725752508361204
2023-01-19T21:00:20.103Z,4.558528428093646
2023-01-19T21:06:55.411Z,3.8260869565217392
2023-01-19T21:13:29.949Z,4.083612040133779
2023-01-19T21:20:20.395Z,3.321070234113712
2023-01-19T21:26:59.001Z,3.1638795986622075
2023-01-19T21:33:39.824Z,3.197324414715719
2023-01-19T21:40:14.603Z,3.260869565217391
2023-01-19T21:46:50.426Z,3.3277591973244145
2023-01-19T21:53:35.137Z,3.608695652173913
2023-01-19T22:00:29.305Z,4.321070234113712
2023-01-19T22:07:12.925Z,5.076923076923077
2023-01-19T22:14:13.556Z,4.702341137123746
2023-01-19T22:31:59.125Z,7.973244147157191
2023-01-19T22:40:51.904Z,12.327759197324415
2023-01-19T22:48:08.705Z,15.85953177257525
2023-01-19T22:55:27.026Z,18.190635451505017
2023-01-19T23:02:52.106Z,21.377926421404684
2023-01-19T23:14:56.899Z,22.652173913043477
2023-01-19T23:28:18.734Z,24.959866220735787
2023-01-19T23:43:11.144Z,27.438127090301002
2023-01-19T23:50:05.027Z,29.474916387959865
2023-01-19T23:56:58.354Z,29.65551839464883
